Time;durP1;ratioP1;P1;durP2;ratioP2;P2;SDS_P1;SDS_P2;PMS_P1;PMS_P2;Temp;Humidity;BMP_temperature;BMP_pressure;BME280_temperature;BME280_humidity;BME280_pressure;Samples;Min_cycle;Max_cycle;Signal;HPM_P1;HPM_P2
2022/11/29 00:01:28;;;;;;;41.72;20.10;;;12.20;58.40;;;;;;4920010;29;20110;-85
2022/11/29 00:03:54;;;;;;;40.55;19.80;;;12.00;59.00;;;;;;4919758;29;20024;-87
2022/11/29 00:06:22;;;;;;;38.58;19.40;;;11.70;59.60;;;;;;4919843;29;20135;-85
2022/11/29 00:08:48;;;;;;;42.13;19.95;;;11.70;59.80;;;;;;4918711;29;20104;-86
2022/11/29 00:14:08;;;;;;;38.75;18.40;;;12.00;59.30;;;;;;4937116;29;20030;-84
2022/11/29 00:16:34;;;;;;;37.33;19.08;;;12.10;58.90;;;;;;4920243;29;20030;-85
2022/11/29 00:19:00;;;;;;;40.80;19.15;;;12.00;59.10;;;;;;4920480;29;20019;-86
2022/11/29 00:21:30;;;;;;;41.50;20.77;;;12.00;59.00;;;;;;4919683;29;20110;-86
2022/11/29 00:23:56;;;;;;;39.63;20.80;;;11.70;59.40;;;;;;4936815;29;20075;-86
2022/11/29 00:26:22;;;;;;;38.85;18.80;;;11.10;61.50;;;;;;4919893;29;20036;-84
2022/11/29 00:28:48;;;;;;;36.90;18.95;;;10.90;62.30;;;;;;4919548;29;20106;-85
2022/11/29 00:31:20;;;;;;;39.10;18.88;;;11.10;61.50;;;;;;4919653;29;20396;-84
2022/11/29 00:33:46;;;;;;;37.35;18.67;;;11.20;61.40;;;;;;4919896;29;20038;-85
2022/11/29 00:36:12;;;;;;;37.00;18.40;;;11.30;60.40;;;;;;4918890;29;20390;-85
2022/11/29 00:38:38;;;;;;;36.25;18.10;;;11.30;60.50;;;;;;4919816;29;20028;-85
2022/11/29 00:41:04;;;;;;;34.33;18.25;;;11.10;60.90;;;;;;4919868;29;20027;-84
2022/11/29 00:43:30;;;;;;;36.90;18.02;;;10.80;61.60;;;;;;4921474;29;20579;-89
2022/11/29 00:45:56;;;;;;;34.65;16.90;;;10.80;62.50;;;;;;4923722;29;20023;-90
2022/11/29 00:48:22;;;;;;;35.05;18.20;;;10.40;63.30;;;;;;4923283;29;20032;-86
2022/11/29 00:50:47;;;;;;;33.60;16.95;;;10.20;63.30;;;;;;4922968;29;20058;-85
2022/11/29 00:53:13;;;;;;;34.67;17.65;;;10.00;63.40;;;;;;4938551;29;20371;-87
2022/11/29 00:55:39;;;;;;;34.47;16.90;;;9.80;64.00;;;;;;4920308;29;20024;-85
2022/11/29 00:58:05;;;;;;;34.08;17.05;;;9.80;64.10;;;;;;4920354;29;20028;-86
2022/11/29 01:00:31;;;;;;;33.72;16.48;;;9.80;64.40;;;;;;4920231;29;20024;-86
2022/11/29 01:02:56;;;;;;;34.28;17.58;;;9.90;64.50;;;;;;4904251;29;20032;-85
2022/11/29 01:05:24;;;;;;;30.75;16.20;;;10.00;64.30;;;;;;4921112;29;20391;-85
2022/11/29 01:07:50;;;;;;;35.22;18.38;;;10.40;62.70;;;;;;4936137;29;20032;-86
2022/11/29 01:10:16;;;;;;;35.10;16.67;;;10.50;62.90;;;;;;4919543;29;20503;-85
2022/11/29 01:12:41;;;;;;;33.65;17.23;;;10.80;62.50;;;;;;4910669;29;20024;-86
2022/11/29 01:15:08;;;;;;;34.50;17.35;;;11.10;61.10;;;;;;4919910;29;20035;-86
2022/11/29 01:17:35;;;;;;;34.80;17.25;;;11.20;60.90;;;;;;4910840;29;20024;-86
2022/11/29 01:20:01;;;;;;;33.83;15.98;;;11.30;61.00;;;;;;4923196;29;20107;-86
2022/11/29 01:22:26;;;;;;;33.17;16.30;;;11.50;59.80;;;;;;4923054;29;20139;-85
2022/11/29 01:24:52;;;;;;;31.75;15.80;;;11.40;60.40;;;;;;4922997;29;20050;-85
2022/11/29 01:27:36;;;;;;;31.02;15.85;;;11.50;60.00;;;;;;4922738;29;20035;-84
2022/11/29 01:30:04;;;;;;;30.98;15.48;;;11.10;61.10;;;;;;4922883;29;20035;-85
2022/11/29 01:32:30;;;;;;;32.55;16.30;;;11.00;60.70;;;;;;4922105;29;20020;-85
2022/11/29 01:34:55;;;;;;;32.25;16.55;;;10.70;61.80;;;;;;4923254;29;20424;-85
2022/11/29 01:37:29;;;;;;;36.40;17.60;;;10.40;61.70;;;;;;4923022;29;20114;-83
2022/11/29 01:39:55;;;;;;;39.15;19.08;;;10.50;62.20;;;;;;4922791;29;20019;-86
2022/11/29 01:42:21;;;;;;;36.80;16.60;;;10.90;62.00;;;;;;4922498;29;20020;-84
2022/11/29 01:45:20;;;;;;;41.70;19.00;;;10.80;62.20;;;;;;4913496;29;20034;-84
2022/11/29 01:47:46;;;;;;;40.72;18.95;;;10.90;61.70;;;;;;4903294;29;20091;-84
2022/11/29 01:50:12;;;;;;;41.30;18.50;;;11.00;61.40;;;;;;4903498;29;20071;-84
2022/11/29 01:52:38;;;;;;;35.13;18.33;;;11.20;61.10;;;;;;4919726;29;20032;-86
2022/11/29 01:55:06;;;;;;;41.65;20.45;;;10.90;61.50;;;;;;4922632;29;20087;-85
2022/11/29 01:57:34;;;;;;;35.92;16.77;;;10.90;62.00;;;;;;4922303;29;20024;-86
2022/11/29 02:00:07;;;;;;;38.15;16.73;;;10.90;61.10;;;;;;4922157;29;20119;-88
2022/11/29 02:02:42;;;;;;;39.38;19.17;;;11.00;61.30;;;;;;4922847;29;20035;-86
2022/11/29 02:05:09;;;;;;;34.70;16.33;;;10.90;61.00;;;;;;4922657;29;20023;-85
2022/11/29 02:07:35;;;;;;;38.20;18.33;;;10.40;62.00;;;;;;4921352;29;20360;-86
2022/11/29 02:10:02;;;;;;;40.50;17.80;;;10.00;63.50;;;;;;4921960;29;20051;-86
2022/11/29 02:12:49;;;;;;;35.55;16.77;;;10.00;63.70;;;;;;4921788;29;20026;-86
2022/11/29 02:15:24;;;;;;;32.35;16.20;;;9.70;64.40;;;;;;4922395;29;20070;-87
2022/11/29 02:18:03;;;;;;;34.28;15.70;;;9.20;64.50;;;;;;4922046;29;20027;-85
2022/11/29 02:21:07;;;;;;;35.60;15.75;;;9.10;65.70;;;;;;4922034;29;20038;-85
2022/11/29 02:24:00;;;;;;;38.03;17.13;;;9.00;65.10;;;;;;4921775;29;20036;-86
2022/11/29 02:26:57;;;;;;;34.95;16.83;;;8.90;66.70;;;;;;4915273;29;20024;-85
2022/11/29 02:29:41;;;;;;;36.63;17.20;;;9.00;66.70;;;;;;4902874;29;20032;-86
2022/11/29 02:32:40;;;;;;;37.13;16.70;;;9.30;65.20;;;;;;4902765;29;20062;-86
2022/11/29 02:35:41;;;;;;;36.35;17.90;;;9.50;64.90;;;;;;4902899;29;20391;-86
2022/11/29 02:38:24;;;;;;;37.10;16.88;;;9.60;64.50;;;;;;4904534;29;20075;-85
2022/11/29 02:40:50;;;;;;;33.95;16.17;;;9.60;64.20;;;;;;4918061;29;20020;-86
2022/11/29 02:43:45;;;;;;;36.97;16.77;;;9.50;64.80;;;;;;4921523;29;20028;-85
2022/11/29 02:46:38;;;;;;;34.20;16.20;;;9.70;64.70;;;;;;4902425;29;20032;-85
2022/11/29 02:49:48;;;;;;;36.45;16.48;;;10.10;62.70;;;;;;4928431;29;20043;-87
2022/11/29 02:52:46;;;;;;;32.28;15.82;;;9.90;63.40;;;;;;4905115;29;20079;-84
2022/11/29 02:55:35;;;;;;;35.83;15.80;;;10.00;63.00;;;;;;4921241;29;20344;-85
2022/11/29 02:58:08;;;;;;;36.88;17.20;;;10.10;63.30;;;;;;4902173;29;20028;-85
2022/11/29 03:00:40;;;;;;;38.45;16.25;;;10.10;62.70;;;;;;4902278;29;20026;-85
2022/11/29 03:03:30;;;;;;;32.05;16.73;;;10.00;63.20;;;;;;4902415;29;20027;-84
2022/11/29 03:06:11;;;;;;;36.05;17.08;;;9.90;63.30;;;;;;4901664;29;20059;-85
2022/11/29 03:09:03;;;;;;;40.90;17.60;;;9.70;63.60;;;;;;4917955;29;20047;-84
2022/11/29 03:11:36;;;;;;;35.70;16.77;;;9.60;64.00;;;;;;4917786;29;20036;-84
2022/11/29 03:14:18;;;;;;;34.47;16.30;;;9.60;64.00;;;;;;4917767;29;20020;-85
2022/11/29 03:17:11;;;;;;;32.35;16.10;;;9.50;64.10;;;;;;4917667;29;20020;-84
2022/11/29 03:19:59;;;;;;;34.22;15.90;;;9.50;63.90;;;;;;4917506;29;20048;-83
2022/11/29 03:22:38;;;;;;;34.30;17.20;;;9.70;64.30;;;;;;4928990;29;20028;-86
2022/11/29 03:25:11;;;;;;;28.20;14.38;;;10.20;63.10;;;;;;4920796;29;20024;-85
2022/11/29 03:27:57;;;;;;;38.00;17.10;;;10.00;62.20;;;;;;4920549;29;20031;-85
2022/11/29 03:30:23;;;;;;;31.02;15.65;;;9.70;64.00;;;;;;4920677;29;20526;-86
2022/11/29 03:33:16;;;;;;;34.00;15.95;;;9.90;63.50;;;;;;4920521;29;20028;-86
2022/11/29 03:35:49;;;;;;;34.17;17.30;;;10.00;62.50;;;;;;4920332;29;20379;-87
2022/11/29 03:38:41;;;;;;;31.33;15.40;;;10.00;62.90;;;;;;4904011;29;20030;-89
2022/11/29 03:41:19;;;;;;;30.45;16.38;;;10.20;62.10;;;;;;4901844;29;20039;-85
2022/11/29 03:44:18;;;;;;;32.53;15.95;;;9.80;63.10;;;;;;4901269;29;20060;-84
2022/11/29 03:47:00;;;;;;;30.98;16.02;;;9.90;63.00;;;;;;4901525;29;20052;-86
2022/11/29 03:49:32;;;;;;;37.70;17.63;;;10.10;62.30;;;;;;4901037;29;20036;-85
2022/11/29 03:52:19;;;;;;;29.77;16.10;;;9.80;63.00;;;;;;4910672;29;20028;-86
2022/11/29 03:55:13;;;;;;;34.28;15.75;;;10.10;62.80;;;;;;4920288;29;20456;-86
2022/11/29 03:57:54;;;;;;;33.20;16.88;;;10.40;61.60;;;;;;4920175;29;20019;-88
2022/11/29 04:00:20;;;;;;;37.20;18.23;;;10.60;61.30;;;;;;4920100;29;20058;-86
2022/11/29 04:03:29;;;;;;;36.13;17.15;;;10.90;60.50;;;;;;4935727;29;20042;-85
2022/11/29 04:06:22;;;;;;;31.70;16.50;;;11.20;59.40;;;;;;4920230;29;20023;-85
2022/11/29 04:09:11;;;;;;;34.85;17.65;;;10.90;59.90;;;;;;4919825;29;20036;-85
2022/11/29 04:11:54;;;;;;;34.80;17.73;;;10.70;60.70;;;;;;4859766;29;20026;-95
2022/11/29 04:14:31;;;;;;;32.78;16.75;;;11.00;60.50;;;;;;4860199;29;20029;-86
2022/11/29 04:17:24;;;;;;;35.08;18.02;;;11.30;59.70;;;;;;4858259;29;20538;-85
2022/11/29 04:20:38;;;;;;;35.85;17.67;;;11.20;59.60;;;;;;4844403;29;20032;-86
2022/11/29 04:23:25;;;;;;;30.40;16.63;;;10.70;60.50;;;;;;4844557;29;20029;-85
2022/11/29 04:26:28;;;;;;;34.60;16.55;;;10.20;61.50;;;;;;4844469;29;20030;-85
2022/11/29 04:29:16;;;;;;;35.45;17.02;;;10.20;62.10;;;;;;4804852;29;20043;-85
2022/11/29 04:32:14;;;;;;;31.25;16.02;;;10.20;61.20;;;;;;4789758;29;20031;-87
2022/11/29 04:35:01;;;;;;;33.08;15.05;;;9.60;63.20;;;;;;4781432;30;20054;-85
2022/11/29 04:38:08;;;;;;;33.53;15.43;;;8.80;64.20;;;;;;4781546;30;20054;-87
2022/11/29 04:40:55;;;;;;;31.70;15.55;;;8.80;65.80;;;;;;4771878;30;20104;-85
2022/11/29 04:43:23;;;;;;;31.95;16.05;;;9.00;65.10;;;;;;4786698;29;20035;-85
2022/11/29 04:46:32;;;;;;;29.98;15.73;;;9.30;64.30;;;;;;4793526;29;20034;-93
2022/11/29 04:49:24;;;;;;;31.52;14.68;;;9.60;63.60;;;;;;4780204;29;20480;-84
2022/11/29 04:52:17;;;;;;;35.58;17.23;;;9.20;64.10;;;;;;4786377;29;20027;-85
2022/11/29 04:54:56;;;;;;;30.92;15.43;;;9.40;64.10;;;;;;4786689;30;20047;-84
2022/11/29 04:57:46;;;;;;;34.70;15.90;;;9.60;63.00;;;;;;4786851;30;20173;-86
2022/11/29 05:00:23;;;;;;;31.63;16.10;;;9.60;62.80;;;;;;4786635;29;20046;-88
2022/11/29 05:03:43;;;;;;;28.58;14.27;;;9.80;62.00;;;;;;4816276;29;20077;-85
2022/11/29 05:06:22;;;;;;;27.00;14.00;;;9.90;61.50;;;;;;4768857;30;20070;-85
2022/11/29 05:08:51;;;;;;;30.75;15.02;;;9.70;62.20;;;;;;4768213;30;20082;-85
2022/11/29 05:11:34;;;;;;;29.77;14.93;;;9.80;62.30;;;;;;4768656;30;20039;-85
2022/11/29 05:14:29;;;;;;;32.90;16.35;;;10.00;62.00;;;;;;4768666;30;20052;-86
2022/11/29 05:17:12;;;;;;;38.15;18.42;;;10.30;61.00;;;;;;4768689;29;20032;-86
2022/11/29 05:19:56;;;;;;;32.95;16.67;;;10.50;61.00;;;;;;4768717;30;20028;-86
2022/11/29 05:22:32;;;;;;;30.35;15.65;;;10.70;60.00;;;;;;4768672;30;20044;-85
2022/11/29 05:25:04;;;;;;;37.15;17.05;;;10.40;60.50;;;;;;4773871;29;20036;-88
2022/11/29 05:27:58;;;;;;;33.33;16.42;;;10.50;60.60;;;;;;4825522;29;20025;-86
2022/11/29 05:30:39;;;;;;;30.77;15.05;;;10.30;60.20;;;;;;4738337;30;20390;-86
2022/11/29 05:33:19;;;;;;;28.10;14.65;;;9.80;61.20;;;;;;4754128;30;20125;-85
2022/11/29 05:35:52;;;;;;;46.88;22.17;;;9.40;62.70;;;;;;4755682;29;20040;-87
2022/11/29 05:38:53;;;;;;;43.05;23.50;;;9.30;62.90;;;;;;4825613;29;20049;-88
2022/11/29 05:41:18;;;;;;;32.50;16.95;;;9.50;62.90;;;;;;4789327;29;20092;-85
2022/11/29 05:43:48;;;;;;;31.13;16.58;;;9.70;62.50;;;;;;4789393;30;20023;-85
2022/11/29 05:46:37;;;;;;;30.95;15.88;;;9.90;61.50;;;;;;4789732;29;20128;-88
2022/11/29 05:49:36;;;;;;;33.00;16.85;;;9.60;61.80;;;;;;4789305;30;20035;-88
2022/11/29 05:52:24;;;;;;;33.43;16.30;;;9.30;63.10;;;;;;4769115;29;20050;-90
2022/11/29 05:55:13;;;;;;;30.75;16.55;;;9.60;62.80;;;;;;4792556;29;20043;-84
2022/11/29 05:58:02;;;;;;;32.05;17.65;;;9.50;62.80;;;;;;4804197;29;20039;-88
2022/11/29 06:00:58;;;;;;;32.75;17.30;;;10.00;61.90;;;;;;4786192;30;20051;-86
2022/11/29 06:03:42;;;;;;;31.17;15.77;;;10.30;60.40;;;;;;4771183;29;20040;-87
2022/11/29 06:06:41;;;;;;;30.80;15.88;;;10.20;60.60;;;;;;4793109;29;20067;-85
2022/11/29 06:09:20;;;;;;;32.88;16.38;;;10.30;60.60;;;;;;4845581;29;20513;-89
2022/11/29 06:11:53;;;;;;;35.42;17.60;;;10.40;60.30;;;;;;4850311;29;20037;-87
2022/11/29 06:14:24;;;;;;;32.38;17.70;;;10.60;59.80;;;;;;4867208;29;20062;-89
2022/11/29 06:17:09;;;;;;;34.13;17.55;;;10.70;59.30;;;;;;4894346;29;20030;-84
2022/11/29 06:20:13;;;;;;;33.65;17.58;;;10.50;59.80;;;;;;4915731;29;20046;-86
2022/11/29 06:22:49;;;;;;;49.33;24.23;;;10.30;60.50;;;;;;4903279;29;20498;-92
2022/11/29 06:25:38;;;;;;;42.28;20.63;;;9.80;61.00;;;;;;4921792;29;20024;-84
2022/11/29 06:28:32;;;;;;;38.05;19.85;;;9.10;63.90;;;;;;4921576;29;20387;-89
2022/11/29 06:31:21;;;;;;;35.13;18.88;;;8.90;63.80;;;;;;4918813;29;20028;-91
2022/11/29 06:34:15;;;;;;;37.38;19.77;;;8.60;64.60;;;;;;4902448;29;20032;-86
2022/11/29 06:36:52;;;;;;;39.08;20.70;;;8.60;64.90;;;;;;4902408;29;20549;-87
2022/11/29 06:39:18;;;;;;;38.22;21.48;;;8.80;65.00;;;;;;4902809;29;20131;-85
2022/11/29 06:41:45;;;;;;;37.50;18.90;;;8.90;65.30;;;;;;4901628;29;20017;-86
2022/11/29 06:44:11;;;;;;;40.05;20.27;;;8.80;65.10;;;;;;4902412;29;20027;-85
2022/11/29 06:46:46;;;;;;;38.35;20.23;;;8.90;65.20;;;;;;4917079;29;20082;-85
2022/11/29 06:49:26;;;;;;;37.53;19.42;;;8.80;65.00;;;;;;4902237;29;20032;-86
2022/11/29 06:52:15;;;;;;;39.08;17.25;;;9.00;64.10;;;;;;4902331;29;20024;-85
2022/11/29 06:54:47;;;;;;;38.08;18.95;;;8.20;66.10;;;;;;4903022;29;20035;-87
2022/11/29 06:57:53;;;;;;;33.97;17.20;;;8.30;66.60;;;;;;4902519;29;20020;-86
2022/11/29 07:00:30;;;;;;;37.35;17.77;;;8.30;65.50;;;;;;4901701;29;20035;-86
2022/11/29 07:03:05;;;;;;;33.40;17.25;;;8.40;66.20;;;;;;4905840;29;20028;-86
2022/11/29 07:05:33;;;;;;;35.78;18.33;;;7.70;67.80;;;;;;4909559;29;20020;-91
2022/11/29 07:08:14;;;;;;;34.90;16.92;;;7.90;67.80;;;;;;4902894;29;20377;-85
2022/11/29 07:10:40;;;;;;;31.85;17.10;;;8.20;66.40;;;;;;4904378;29;20127;-86
2022/11/29 07:13:06;;;;;;;33.13;17.38;;;8.10;67.20;;;;;;4916024;29;20115;-86
2022/11/29 07:15:33;;;;;;;32.33;17.95;;;8.30;66.70;;;;;;4910148;29;20107;-86
2022/11/29 07:18:45;;;;;;;33.45;18.45;;;8.50;65.50;;;;;;4911888;29;20472;-85
2022/11/29 07:21:20;;;;;;;34.63;18.25;;;8.50;66.00;;;;;;4841932;29;20054;-85
2022/11/29 07:24:39;;;;;;;32.45;17.15;;;8.80;65.20;;;;;;4842158;29;20477;-84
2022/11/29 07:27:31;;;;;;;37.78;20.52;;;9.20;64.90;;;;;;4796991;29;20501;-84
2022/11/29 07:30:29;;;;;;;36.17;18.48;;;9.90;63.10;;;;;;4826817;29;20037;-89
2022/11/29 07:33:21;;;;;;;30.25;16.15;;;10.40;60.90;;;;;;4836232;29;20040;-86
2022/11/29 07:36:12;;;;;;;37.47;18.17;;;10.60;60.20;;;;;;4840912;29;20032;-86
2022/11/29 07:38:58;;;;;;;37.35;18.02;;;10.50;60.50;;;;;;4826563;29;20041;-86
2022/11/29 07:41:49;;;;;;;39.83;17.13;;;10.40;60.50;;;;;;4849292;29;20416;-90
2022/11/29 07:44:32;;;;;;;34.17;17.85;;;10.60;59.70;;;;;;4851668;29;20473;-86
2022/11/29 07:46:57;;;;;;;39.83;19.70;;;10.50;60.30;;;;;;4842399;29;20033;-85
2022/11/29 07:49:23;;;;;;;32.95;17.05;;;10.40;60.90;;;;;;4843372;29;20113;-85
2022/11/29 07:51:52;;;;;;;31.42;17.65;;;10.10;61.10;;;;;;4878604;29;20103;-85
2022/11/29 07:54:18;;;;;;;33.50;17.92;;;9.80;61.30;;;;;;4920601;29;20386;-84
2022/11/29 07:56:44;;;;;;;32.28;17.42;;;9.20;63.50;;;;;;4920064;29;20039;-85
2022/11/29 07:59:11;;;;;;;30.85;17.35;;;9.50;63.10;;;;;;4920082;29;20043;-85
2022/11/29 08:01:38;;;;;;;35.60;17.38;;;9.90;62.00;;;;;;4919766;29;20038;-85
2022/11/29 08:04:05;;;;;;;32.25;16.33;;;10.20;61.80;;;;;;4919997;29;20027;-85
2022/11/29 08:06:30;;;;;;;33.95;17.73;;;10.20;60.30;;;;;;4919910;29;20020;-85
2022/11/29 08:08:57;;;;;;;33.10;17.83;;;9.80;61.60;;;;;;4919624;29;20039;-86
2022/11/29 08:11:23;;;;;;;33.97;17.15;;;9.90;61.60;;;;;;4920017;29;20028;-85
2022/11/29 08:13:48;;;;;;;34.13;17.75;;;9.80;61.50;;;;;;4919974;29;20370;-85
2022/11/29 08:16:17;;;;;;;35.63;17.77;;;9.60;62.10;;;;;;4919890;29;20020;-83
2022/11/29 08:18:44;;;;;;;37.05;17.95;;;9.80;62.80;;;;;;4919904;29;20032;-82
2022/11/29 08:21:09;;;;;;;29.73;15.52;;;10.40;61.70;;;;;;4920186;29;20351;-84
2022/11/29 08:23:35;;;;;;;29.17;15.00;;;10.90;59.50;;;;;;4919789;29;20541;-83
2022/11/29 08:26:02;;;;;;;46.97;24.77;;;10.20;60.80;;;;;;4919651;29;20015;-85
2022/11/29 08:28:28;;;;;;;36.03;18.35;;;10.00;61.60;;;;;;4919884;29;20042;-89
2022/11/29 08:31:05;;;;;;;35.40;17.98;;;10.30;60.80;;;;;;4919926;29;20020;-84
2022/11/29 08:33:33;;;;;;;59.15;28.42;;;10.20;61.20;;;;;;4919785;29;20020;-84
2022/11/29 08:36:10;;;;;;;38.15;19.63;;;10.40;60.30;;;;;;4919715;29;20114;-85
2022/11/29 08:38:36;;;;;;;33.22;18.73;;;10.10;60.90;;;;;;4919754;29;20056;-84
2022/11/29 08:41:04;;;;;;;34.85;17.50;;;10.00;61.60;;;;;;4920534;29;20024;-84
2022/11/29 08:43:29;;;;;;;34.85;17.65;;;9.80;61.50;;;;;;4919543;29;20078;-84
2022/11/29 08:45:56;;;;;;;37.88;21.40;;;9.50;62.70;;;;;;4919500;29;20024;-86
2022/11/29 08:48:22;;;;;;;29.50;16.08;;;9.50;63.30;;;;;;4919478;29;20382;-84
2022/11/29 08:50:49;;;;;;;28.38;15.50;;;9.70;62.00;;;;;;4919812;29;20028;-84
2022/11/29 08:55:59;;;;;;;62.47;29.02;;;10.20;61.80;;;;;;4936754;29;20034;-85
2022/11/29 08:58:25;;;;;;;48.90;25.27;;;10.80;60.60;;;;;;4919400;29;20024;-85
2022/11/29 09:00:51;;;;;;;78.28;38.38;;;11.30;59.50;;;;;;4919588;29;20031;-84
2022/11/29 09:06:10;;;;;;;44.55;25.23;;;11.60;58.40;;;;;;4940321;29;20043;-84
2022/11/29 09:08:36;;;;;;;32.65;17.65;;;11.40;58.60;;;;;;4922818;29;20467;-85
2022/11/29 09:11:13;;;;;;;29.88;16.00;;;11.20;58.50;;;;;;4922791;29;20058;-84
2022/11/29 09:13:41;;;;;;;27.65;14.60;;;11.00;59.20;;;;;;4922934;29;20079;-85
2022/11/29 09:16:12;;;;;;;30.35;15.90;;;11.00;59.20;;;;;;4939618;29;20514;-85
2022/11/29 09:18:39;;;;;;;37.13;20.02;;;11.30;58.80;;;;;;4922235;29;20066;-86
2022/11/29 09:21:10;;;;;;;32.70;18.25;;;11.50;58.80;;;;;;4923227;29;20046;-84
2022/11/29 09:23:36;;;;;;;27.17;14.13;;;11.80;57.80;;;;;;4921419;29;20516;-84
2022/11/29 09:26:03;;;;;;;25.73;13.88;;;11.80;57.60;;;;;;4921291;29;20023;-83
2022/11/29 09:28:29;;;;;;;23.30;12.48;;;11.80;57.00;;;;;;4922014;29;20042;-84
2022/11/29 09:30:55;;;;;;;32.88;18.45;;;11.50;57.50;;;;;;4922667;29;20020;-84
2022/11/29 09:33:21;;;;;;;44.25;26.17;;;11.60;57.60;;;;;;4922492;29;20024;-84
2022/11/29 09:35:47;;;;;;;27.40;16.02;;;11.60;57.30;;;;;;4922656;29;20023;-84
2022/11/29 09:38:13;;;;;;;22.55;13.68;;;11.70;57.40;;;;;;4922316;29;20024;-89
2022/11/29 09:40:51;;;;;;;41.45;25.45;;;11.90;57.20;;;;;;4922379;29;20110;-86
2022/11/29 09:43:49;;;;;;;21.80;13.70;;;12.00;56.80;;;;;;4922654;29;20486;-85
2022/11/29 09:46:20;;;;;;;21.67;12.38;;;12.20;56.70;;;;;;4922170;29;20023;-85
2022/11/29 09:49:08;;;;;;;24.08;12.93;;;12.10;56.40;;;;;;4921964;29;20039;-84
2022/11/29 09:51:33;;;;;;;20.38;12.65;;;12.00;56.10;;;;;;4922448;29;20149;-86
2022/11/29 09:54:23;;;;;;;21.83;13.23;;;11.90;56.70;;;;;;4922007;29;20065;-84
2022/11/29 09:56:54;;;;;;;20.52;12.18;;;11.80;56.50;;;;;;4922104;29;20106;-84
2022/11/29 09:59:42;;;;;;;21.10;11.77;;;11.70;56.60;;;;;;4938976;29;20461;-85
2022/11/29 10:02:23;;;;;;;20.92;12.25;;;11.80;56.40;;;;;;4922053;29;20035;-83
2022/11/29 10:05:02;;;;;;;21.20;12.35;;;11.80;56.40;;;;;;4921406;29;20016;-83
2022/11/29 10:07:41;;;;;;;22.13;12.82;;;11.80;56.00;;;;;;4921924;29;20371;-83
2022/11/29 10:10:18;;;;;;;17.50;10.48;;;11.80;57.20;;;;;;4921077;29;20051;-84
2022/11/29 10:13:16;;;;;;;19.05;10.98;;;11.70;56.20;;;;;;4938939;29;20027;-84
2022/11/29 10:15:48;;;;;;;20.95;12.55;;;11.90;56.40;;;;;;4925958;29;20107;-84
2022/11/29 10:18:50;;;;;;;21.65;12.60;;;12.10;56.50;;;;;;4922061;29;20459;-84
2022/11/29 10:21:24;;;;;;;20.63;12.43;;;12.00;56.10;;;;;;4921435;29;20095;-84
2022/11/29 10:23:53;;;;;;;30.23;18.73;;;12.00;56.20;;;;;;4921495;29;20028;-84
2022/11/29 10:26:21;;;;;;;20.90;11.73;;;12.10;56.00;;;;;;4921571;29;20114;-84
2022/11/29 10:28:48;;;;;;;19.33;10.93;;;11.30;56.30;;;;;;4921572;29;20071;-84
2022/11/29 10:31:21;;;;;;;19.67;12.00;;;10.40;58.20;;;;;;4938228;29;20088;-85
2022/11/29 10:33:48;;;;;;;22.38;12.45;;;9.80;59.60;;;;;;4938799;29;20047;-84
2022/11/29 10:36:44;;;;;;;21.55;12.82;;;9.50;61.20;;;;;;4921288;29;20098;-85
2022/11/29 10:39:19;;;;;;;20.63;11.48;;;9.80;60.10;;;;;;4921379;29;20114;-84
2022/11/29 10:41:46;;;;;;;19.17;11.90;;;9.60;61.40;;;;;;4921012;29;20019;-90
2022/11/29 10:44:13;;;;;;;20.65;11.77;;;10.00;61.00;;;;;;4921121;29;20054;-84
2022/11/29 10:46:40;;;;;;;21.58;12.63;;;10.40;60.00;;;;;;4938349;29;20047;-84
2022/11/29 10:49:12;;;;;;;21.65;12.82;;;10.80;59.10;;;;;;4920765;29;20534;-84
2022/11/29 10:51:38;;;;;;;22.52;13.68;;;10.70;58.60;;;;;;4921079;29;20024;-84
2022/11/29 10:54:30;;;;;;;20.88;12.07;;;10.40;59.80;;;;;;4921185;29;20042;-84
2022/11/29 10:56:58;;;;;;;18.77;11.73;;;10.50;59.70;;;;;;4918160;29;20027;-84
2022/11/29 10:59:27;;;;;;;22.23;13.48;;;10.70;59.50;;;;;;4920838;29;20028;-83
2022/11/29 11:01:53;;;;;;;19.60;11.43;;;11.20;59.10;;;;;;4921003;29;20477;-84
2022/11/29 11:04:43;;;;;;;21.15;12.60;;;11.70;57.70;;;;;;4920933;29;20038;-84
2022/11/29 11:07:24;;;;;;;22.23;12.35;;;11.60;57.80;;;;;;4920848;29;20035;-84
2022/11/29 11:09:54;;;;;;;23.55;13.27;;;11.70;57.80;;;;;;4920516;29;20048;-84
2022/11/29 11:12:32;;;;;;;21.35;12.80;;;11.80;57.10;;;;;;4920669;29;20027;-84
2022/11/29 11:15:22;;;;;;;18.65;12.10;;;11.70;57.00;;;;;;4920621;29;20144;-84
2022/11/29 11:17:57;;;;;;;26.55;13.23;;;11.70;57.60;;;;;;4920545;29;20090;-86
2022/11/29 11:20:25;;;;;;;23.63;13.55;;;11.90;57.20;;;;;;4920806;29;20075;-85
2022/11/29 11:23:19;;;;;;;20.73;12.45;;;11.70;57.50;;;;;;4920262;29;20422;-84
2022/11/29 11:25:45;;;;;;;21.75;13.23;;;11.20;58.00;;;;;;4920256;29;20479;-84
2022/11/29 11:28:45;;;;;;;21.70;12.93;;;11.10;59.10;;;;;;4919842;29;20056;-84
2022/11/29 11:31:11;;;;;;;;;;;11.80;58.00;;;;;;4863617;29;20043;-84
2022/11/29 11:33:42;;;;;;;20.45;12.30;;;11.90;57.40;;;;;;4863279;29;19912;-84
2022/11/29 11:36:20;;;;;;;21.60;13.15;;;12.20;56.70;;;;;;4863301;29;20096;-84
2022/11/29 11:38:55;;;;;;;23.70;13.88;;;11.90;57.30;;;;;;4863527;29;20029;-84
2022/11/29 11:41:22;;;;;;;22.20;12.77;;;12.40;56.70;;;;;;4863267;29;20081;-85
2022/11/29 11:43:57;;;;;;;22.20;13.10;;;12.20;55.70;;;;;;4863104;29;20036;-84
2022/11/29 11:46:45;;;;;;;22.48;13.02;;;12.00;56.20;;;;;;4863139;29;20077;-84
2022/11/29 11:49:12;;;;;;;21.30;12.52;;;11.80;57.40;;;;;;4862980;29;20479;-84
2022/11/29 11:51:41;;;;;;;21.75;12.77;;;11.90;56.70;;;;;;4863059;29;20028;-84
2022/11/29 11:54:13;;;;;;;23.27;13.65;;;11.60;57.80;;;;;;4878528;29;20044;-84
2022/11/29 11:56:39;;;;;;;20.00;12.95;;;11.90;57.70;;;;;;4878430;29;20096;-84
2022/11/29 11:59:05;;;;;;;23.35;12.30;;;11.70;56.90;;;;;;4862985;29;20464;-84
2022/11/29 12:01:38;;;;;;;23.92;13.80;;;11.10;58.70;;;;;;4878468;29;20033;-84
2022/11/29 12:04:11;;;;;;;20.45;11.90;;;10.90;59.60;;;;;;4862950;29;20162;-84
2022/11/29 12:06:57;;;;;;;19.90;12.63;;;11.30;57.90;;;;;;4871811;29;20032;-85
2022/11/29 12:09:43;;;;;;;21.98;13.55;;;11.10;58.50;;;;;;4919857;29;20048;-84
2022/11/29 12:12:18;;;;;;;21.25;12.98;;;11.20;59.50;;;;;;4919306;29;20477;-82
2022/11/29 12:14:56;;;;;;;22.38;13.50;;;11.30;58.30;;;;;;4936366;29;20114;-84
2022/11/29 12:17:34;;;;;;;22.85;13.32;;;11.30;58.60;;;;;;4936495;29;20098;-84
2022/11/29 12:20:21;;;;;;;22.63;12.93;;;11.10;58.40;;;;;;4919878;29;20042;-84
2022/11/29 12:23:05;;;;;;;22.83;12.82;;;10.00;60.90;;;;;;4919439;29;20027;-85
2022/11/29 12:25:43;;;;;;;25.50;13.95;;;10.00;61.50;;;;;;4919520;29;20119;-84
2022/11/29 12:28:14;;;;;;;22.45;12.70;;;10.60;60.60;;;;;;4919214;29;20036;-85
2022/11/29 12:30:50;;;;;;;23.50;13.32;;;11.00;59.90;;;;;;4936418;29;20103;-84
2022/11/29 12:33:37;;;;;;;21.70;13.07;;;11.10;58.80;;;;;;4919453;29;20059;-85
2022/11/29 12:36:18;;;;;;;26.02;14.38;;;10.40;59.80;;;;;;4936162;29;20031;-83
2022/11/29 12:39:08;;;;;;;23.98;14.05;;;9.80;61.80;;;;;;4919717;29;20427;-83
2022/11/29 12:41:45;;;;;;;24.20;13.25;;;9.60;62.30;;;;;;4923325;29;20022;-84
2022/11/29 12:44:28;;;;;;;24.17;14.13;;;9.60;62.80;;;;;;4923212;29;20083;-84
2022/11/29 12:47:07;;;;;;;22.15;13.40;;;9.40;63.40;;;;;;4923215;29;20114;-85
2022/11/29 12:50:05;;;;;;;23.80;14.07;;;9.30;63.60;;;;;;4922853;29;20042;-83
2022/11/29 12:52:52;;;;;;;25.80;14.35;;;9.60;63.50;;;;;;4919064;29;20028;-84
2022/11/29 12:55:23;;;;;;;31.65;18.13;;;10.10;62.20;;;;;;4923091;29;20486;-84
2022/11/29 12:58:15;;;;;;;23.30;14.07;;;10.50;61.00;;;;;;4922875;29;20078;-84
2022/11/29 13:01:33;;;;;;;24.70;14.93;;;10.40;61.10;;;;;;4922584;29;20023;-84
2022/11/29 13:04:19;;;;;;;22.88;13.77;;;10.60;61.40;;;;;;4866074;29;20172;-84
2022/11/29 13:06:57;;;;;;;24.60;13.98;;;11.20;59.70;;;;;;4865895;29;20405;-84
2022/11/29 13:09:44;;;;;;;21.98;12.98;;;11.60;58.60;;;;;;4865975;29;20055;-84
2022/11/29 13:12:23;;;;;;;28.55;14.77;;;11.90;57.80;;;;;;4865721;29;20527;-85
2022/11/29 13:15:15;;;;;;;26.63;15.75;;;12.10;57.80;;;;;;4865949;29;20067;-84
2022/11/29 13:17:49;;;;;;;26.67;16.02;;;12.50;56.50;;;;;;4865700;29;20021;-87
2022/11/29 13:20:51;;;;;;;30.33;17.73;;;12.70;56.60;;;;;;4881343;29;20041;-84
2022/11/29 13:23:39;;;;;;;25.73;16.00;;;13.00;55.90;;;;;;4881305;29;20029;-84
2022/11/29 13:26:09;;;;;;;27.85;16.48;;;13.20;55.50;;;;;;4846873;29;20037;-84
2022/11/29 13:28:38;;;;;;;25.58;15.25;;;12.90;55.70;;;;;;4846959;29;20050;-85
2022/11/29 13:31:14;;;;;;;27.67;16.90;;;13.10;55.60;;;;;;4846901;29;20025;-85
2022/11/29 13:34:04;;;;;;;41.67;21.75;;;13.30;55.50;;;;;;4862415;29;20034;-84